Weather at Grand Strand Airport

Public forecast

Using degrees Fahrenheit for public forecast. Weather courtesy of forecast.io.

Current aviation weather report (METAR) for Grand Strand Airport

Retrieved 2020/11/30 19:53 UTC (20 minutes ago):

KCRE 301953Z 26011G21KT 10SM CLR 20/11 A2957 RMK AO1 PK WND 25026/1915 SLP013 T02000106

Aviation forecast (TAF) for Grand Strand Airport

Retrieved 2020/11/30 18:36 UTC (2 hours ago):

TAF KCRE 301733Z 3018/0118 22020G32KT P6SM SCT050 FM301900 24019G30KT P6SM SCT070 FM302100 26016G26KT P6SM FEW090 FM011700 28013KT P6SM SKC